createdAt,value
2019-03-23T00:01:46.518Z,40.20
2019-03-23T00:04:49.070Z,40.10
2019-03-23T00:07:51.759Z,40.20
2019-03-23T00:10:54.104Z,40.20
2019-03-23T00:13:56.279Z,40.30
2019-03-23T00:16:58.519Z,40.30
2019-03-23T00:20:00.766Z,40.30
2019-03-23T00:23:03.032Z,40.20
2019-03-23T00:26:05.266Z,40.40
2019-03-23T00:29:07.512Z,40.40
2019-03-23T00:32:09.749Z,40.40
2019-03-23T00:35:12.211Z,41.00
2019-03-23T00:38:14.438Z,40.50
2019-03-23T00:41:16.670Z,40.50
2019-03-23T00:44:18.909Z,40.50
2019-03-23T00:47:21.108Z,40.50
2019-03-23T00:50:23.321Z,40.50
2019-03-23T00:53:25.594Z,40.60
2019-03-23T00:56:27.857Z,40.60
2019-03-23T00:59:30.145Z,40.50
2019-03-23T01:02:32.341Z,40.60
2019-03-23T01:05:34.585Z,40.60
2019-03-23T01:08:36.759Z,40.60
2019-03-23T01:11:39.030Z,40.60
2019-03-23T01:14:41.296Z,40.70
2019-03-23T01:17:43.558Z,40.70
2019-03-23T01:20:49.832Z,40.80
2019-03-23T01:23:49.850Z,40.80
2019-03-23T01:26:52.055Z,40.80
2019-03-23T01:29:54.402Z,40.80
2019-03-23T01:32:56.641Z,40.80
2019-03-23T01:35:58.901Z,40.90
2019-03-23T01:39:01.144Z,40.90
2019-03-23T01:42:05.421Z,40.90
2019-03-23T01:45:09.100Z,40.90
2019-03-23T01:48:11.368Z,40.90
2019-03-23T01:51:14.810Z,41.00
2019-03-23T01:54:17.040Z,40.90
2019-03-23T01:57:19.304Z,40.90
2019-03-23T02:00:21.539Z,41.00
2019-03-23T02:03:23.839Z,41.10
2019-03-23T02:06:26.075Z,41.00
2019-03-23T02:09:28.312Z,41.00
2019-03-23T02:12:30.655Z,41.10
2019-03-23T02:15:32.911Z,41.10
2019-03-23T02:18:35.173Z,41.20
2019-03-23T02:21:37.474Z,41.10
2019-03-23T02:24:39.692Z,41.10
2019-03-23T02:27:41.936Z,41.10
2019-03-23T02:30:44.185Z,41.20
2019-03-23T02:33:46.460Z,41.30
2019-03-23T02:36:48.683Z,41.20
2019-03-23T02:39:50.869Z,41.20
2019-03-23T02:42:53.158Z,41.30
2019-03-23T02:45:55.359Z,41.30
2019-03-23T02:48:57.621Z,41.30
2019-03-23T02:51:59.894Z,41.30
2019-03-23T02:55:02.160Z,41.30
2019-03-23T02:58:04.511Z,41.50
2019-03-23T03:01:06.834Z,41.40
2019-03-23T03:04:09.097Z,41.50
2019-03-23T03:07:11.333Z,41.50
2019-03-23T03:10:16.676Z,41.50
2019-03-23T03:13:18.960Z,41.50
2019-03-23T03:16:21.304Z,41.60
2019-03-23T03:19:23.558Z,41.50
2019-03-23T03:22:26.890Z,42.10
2019-03-23T03:25:29.158Z,41.60
2019-03-23T03:28:31.415Z,41.60
2019-03-23T03:31:33.699Z,41.60
2019-03-23T03:34:37.089Z,41.80
2019-03-23T03:37:39.328Z,41.80
2019-03-23T03:40:42.591Z,41.70
2019-03-23T03:43:45.947Z,41.80
2019-03-23T03:46:48.176Z,41.70
2019-03-23T03:49:50.423Z,41.90
2019-03-23T03:52:52.632Z,41.90
2019-03-23T03:55:54.857Z,41.80
2019-03-23T03:58:57.239Z,42.00
2019-03-23T04:01:59.481Z,41.90
2019-03-23T04:05:01.765Z,41.90
2019-03-23T04:08:11.340Z,41.90
2019-03-23T04:11:07.982Z,42.00
2019-03-23T04:14:10.237Z,42.10
2019-03-23T04:17:12.496Z,42.00
2019-03-23T04:20:15.088Z,42.00
2019-03-23T04:23:17.339Z,42.00
2019-03-23T04:26:19.567Z,42.10
2019-03-23T04:29:21.785Z,42.00
2019-03-23T04:32:24.072Z,42.20
2019-03-23T04:35:26.365Z,42.10
2019-03-23T04:38:28.650Z,42.20
2019-03-23T04:41:30.841Z,42.20
2019-03-23T04:44:33.112Z,42.10
2019-03-23T04:47:35.394Z,42.10
2019-03-23T04:50:38.715Z,42.20
2019-03-23T04:53:41.051Z,42.10
2019-03-23T04:56:43.370Z,42.20
2019-03-23T04:59:45.621Z,42.20
2019-03-23T05:02:47.887Z,42.20
2019-03-23T05:05:50.118Z,42.20
2019-03-23T05:08:52.359Z,42.30
2019-03-23T05:11:54.670Z,42.20
2019-03-23T05:14:56.899Z,42.20
2019-03-23T05:17:59.150Z,42.30
2019-03-23T05:21:01.452Z,42.30
2019-03-23T05:24:03.714Z,42.20
2019-03-23T05:27:05.978Z,42.30
2019-03-23T05:30:09.316Z,42.20
2019-03-23T05:33:11.560Z,42.20
2019-03-23T05:36:15.359Z,42.80
2019-03-23T05:39:17.868Z,42.30
2019-03-23T05:42:20.119Z,42.20
2019-03-23T05:45:22.373Z,42.30
2019-03-23T05:48:24.675Z,42.40
2019-03-23T05:51:26.947Z,42.40
2019-03-23T05:54:29.205Z,42.90
2019-03-23T05:57:31.476Z,42.30
2019-03-23T06:00:33.754Z,42.40
2019-03-23T06:03:36.027Z,42.30
2019-03-23T06:06:38.284Z,42.30
2019-03-23T06:09:40.597Z,42.40
2019-03-23T06:12:42.863Z,42.30
2019-03-23T06:15:45.185Z,42.40
2019-03-23T06:18:47.483Z,42.30
2019-03-23T06:21:49.777Z,42.40
2019-03-23T06:24:52.017Z,42.50
2019-03-23T06:27:56.201Z,42.60
2019-03-23T06:30:58.291Z,42.70
2019-03-23T06:34:00.545Z,42.90
2019-03-23T06:37:03.874Z,42.90
2019-03-23T06:40:07.461Z,42.80
2019-03-23T06:43:09.703Z,42.80
2019-03-23T06:46:11.983Z,42.60
2019-03-23T06:49:14.355Z,42.50
2019-03-23T06:52:16.637Z,42.50
2019-03-23T06:55:18.874Z,42.70
2019-03-23T06:58:21.426Z,42.90
2019-03-23T07:01:23.714Z,42.90
2019-03-23T07:04:26.880Z,42.90
2019-03-23T07:07:29.181Z,42.90
2019-03-23T07:10:31.402Z,42.90
2019-03-23T07:13:33.710Z,43.10
2019-03-23T07:16:36.034Z,43.20
2019-03-23T07:19:38.298Z,43.10
2019-03-23T07:22:40.676Z,43.10
2019-03-23T07:25:42.925Z,43.10
2019-03-23T07:28:45.219Z,43.10
2019-03-23T07:31:47.448Z,43.20
2019-03-23T07:34:49.700Z,43.10
2019-03-23T07:37:52.053Z,43.10
2019-03-23T07:40:54.386Z,43.00
2019-03-23T07:43:56.654Z,43.10
2019-03-23T07:46:59.185Z,43.10
2019-03-23T07:50:01.479Z,43.20
2019-03-23T07:53:03.865Z,43.10
2019-03-23T07:56:06.147Z,43.20
2019-03-23T07:59:08.425Z,43.20
2019-03-23T08:02:10.741Z,43.10
2019-03-23T08:05:13.086Z,43.20
2019-03-23T08:08:31.126Z,43.30
2019-03-23T08:11:33.377Z,43.40
2019-03-23T08:14:36.567Z,43.90
2019-03-23T08:17:38.863Z,43.20
2019-03-23T08:20:41.125Z,43.00
2019-03-23T08:23:43.431Z,43.20
2019-03-23T08:26:46.752Z,43.10
2019-03-23T08:29:49.014Z,43.00
2019-03-23T08:32:51.248Z,43.10
2019-03-23T08:35:53.513Z,43.00
2019-03-23T08:38:56.318Z,43.10
2019-03-23T08:41:58.531Z,43.10
2019-03-23T08:45:00.776Z,43.80
2019-03-23T08:48:03.037Z,43.30
2019-03-23T08:51:06.950Z,43.30
2019-03-23T08:54:09.340Z,43.60
2019-03-23T08:57:11.639Z,42.90
2019-03-23T09:00:14.278Z,42.00
2019-03-23T09:03:16.594Z,42.30
2019-03-23T09:06:18.859Z,42.30
2019-03-23T09:09:21.111Z,42.10
2019-03-23T09:12:23.394Z,42.00
2019-03-23T09:15:25.757Z,41.50
2019-03-23T09:18:28.082Z,41.50
2019-03-23T09:21:30.330Z,41.40
2019-03-23T09:24:32.548Z,41.30
2019-03-23T09:27:34.788Z,41.00
2019-03-23T09:30:37.108Z,40.80
2019-03-23T09:33:41.539Z,40.50
2019-03-23T09:36:43.831Z,39.80
2019-03-23T09:39:46.189Z,39.70
2019-03-23T09:42:49.224Z,39.00
2019-03-23T09:45:51.493Z,38.80
2019-03-23T09:48:53.859Z,38.30
2019-03-23T09:51:56.192Z,38.60
2019-03-23T09:54:58.460Z,38.40
2019-03-23T09:58:00.780Z,38.70
2019-03-23T10:01:03.060Z,38.30
2019-03-23T10:04:05.422Z,38.60
2019-03-23T10:07:07.725Z,38.70
2019-03-23T10:10:20.988Z,38.60
2019-03-23T10:13:14.328Z,38.10
2019-03-23T10:16:16.637Z,36.90
2019-03-23T10:19:19.064Z,37.50
2019-03-23T10:22:21.402Z,36.80
2019-03-23T10:25:24.864Z,37.10
2019-03-23T10:28:27.141Z,36.90
2019-03-23T10:31:29.411Z,37.20
2019-03-23T10:34:31.750Z,36.70
2019-03-23T10:37:34.022Z,36.10
2019-03-23T10:40:36.323Z,35.80
2019-03-23T10:43:39.121Z,35.40
2019-03-23T10:46:41.504Z,34.50
2019-03-23T10:49:43.806Z,34.50
2019-03-23T10:52:46.138Z,33.30
2019-03-23T10:55:48.431Z,34.30
2019-03-23T10:58:50.794Z,35.10
2019-03-23T11:01:53.065Z,35.40
2019-03-23T11:04:55.384Z,35.20
2019-03-23T11:07:57.734Z,35.00
2019-03-23T11:10:59.972Z,35.30
2019-03-23T11:14:02.246Z,36.70
2019-03-23T11:17:04.589Z,36.00
2019-03-23T11:20:07.624Z,35.20
2019-03-23T11:23:09.886Z,35.50
2019-03-23T11:26:12.166Z,35.90
2019-03-23T11:29:14.464Z,35.30
2019-03-23T11:32:16.715Z,33.20
2019-03-23T11:35:19.122Z,33.40
2019-03-23T11:38:21.351Z,33.40
2019-03-23T11:41:23.605Z,32.30
2019-03-23T11:44:25.905Z,32.40
2019-03-23T11:47:28.169Z,32.60
2019-03-23T11:50:30.435Z,31.60
2019-03-23T11:53:32.700Z,31.80
2019-03-23T11:56:34.954Z,32.10
2019-03-23T11:59:37.306Z,31.10
2019-03-23T12:02:39.608Z,32.50
2019-03-23T12:05:42.400Z,31.50
2019-03-23T12:08:44.660Z,31.20
2019-03-23T12:11:47.025Z,30.00
2019-03-23T12:14:49.299Z,30.00
2019-03-23T12:17:51.591Z,30.50
2019-03-23T12:20:53.923Z,30.00
2019-03-23T12:23:56.213Z,31.90
2019-03-23T12:26:58.518Z,30.30
2019-03-23T12:30:07.055Z,31.80
2019-03-23T12:33:04.874Z,31.20
2019-03-23T12:36:07.154Z,31.10
2019-03-23T12:39:09.425Z,30.00
2019-03-23T12:42:11.806Z,30.30
2019-03-23T12:45:14.122Z,30.40
2019-03-23T12:48:16.403Z,29.70
2019-03-23T12:51:18.683Z,28.50
2019-03-23T12:54:20.940Z,28.60
2019-03-23T12:57:23.263Z,29.60
2019-03-23T13:00:25.559Z,28.50
2019-03-23T13:03:27.920Z,29.30
2019-03-23T13:06:30.230Z,27.20
2019-03-23T13:09:32.504Z,28.60
2019-03-23T13:12:34.837Z,29.00
2019-03-23T13:15:37.114Z,27.60
2019-03-23T13:18:39.424Z,26.60
2019-03-23T13:21:41.730Z,27.10
2019-03-23T13:24:44.006Z,27.00
2019-03-23T13:27:46.310Z,27.20
2019-03-23T13:30:48.619Z,26.40
2019-03-23T13:33:50.945Z,25.20
2019-03-23T13:36:53.230Z,25.60
2019-03-23T13:39:55.493Z,25.70
2019-03-23T13:42:57.779Z,25.70
2019-03-23T13:46:00.075Z,26.10
2019-03-23T13:49:02.377Z,26.10
2019-03-23T13:52:04.671Z,25.70
2019-03-23T13:55:07.660Z,25.80
2019-03-23T13:58:16.327Z,23.90
2019-03-23T14:01:18.600Z,24.30
2019-03-23T14:04:20.960Z,24.60
2019-03-23T14:07:23.254Z,24.00
2019-03-23T14:10:25.555Z,23.80
2019-03-23T14:13:27.925Z,23.50
2019-03-23T14:16:30.183Z,24.30
2019-03-23T14:19:32.488Z,23.50
2019-03-23T14:22:34.775Z,24.20
2019-03-23T14:25:37.081Z,23.90
2019-03-23T14:28:39.373Z,24.00
2019-03-23T14:31:41.677Z,22.90
2019-03-23T14:34:43.997Z,22.70
2019-03-23T14:37:46.271Z,22.30
2019-03-23T14:40:48.552Z,23.40
2019-03-23T14:43:50.823Z,21.80
2019-03-23T14:46:53.142Z,22.20
2019-03-23T14:49:55.429Z,22.10
2019-03-23T14:52:57.720Z,21.60
2019-03-23T14:56:00.020Z,22.20
2019-03-23T14:59:02.303Z,21.60
2019-03-23T15:02:05.746Z,22.00
2019-03-23T15:05:08.613Z,21.10
2019-03-23T15:08:10.969Z,21.20
2019-03-23T15:11:13.265Z,21.50
2019-03-23T15:14:15.569Z,21.40
2019-03-23T15:17:17.882Z,21.50
2019-03-23T15:20:20.283Z,21.00
2019-03-23T15:23:22.638Z,21.40
2019-03-23T15:26:24.903Z,21.30
2019-03-23T15:29:28.256Z,21.40
2019-03-23T15:32:30.609Z,21.60
2019-03-23T15:35:32.941Z,21.20
2019-03-23T15:38:35.239Z,21.90
2019-03-23T15:41:37.535Z,22.00
2019-03-23T15:44:39.801Z,21.80
2019-03-23T15:47:42.076Z,21.50
2019-03-23T15:50:44.385Z,21.80
2019-03-23T15:53:46.664Z,21.70
2019-03-23T15:56:48.948Z,21.40
2019-03-23T15:59:51.660Z,19.60
2019-03-23T16:02:54.010Z,18.90
2019-03-23T16:05:56.302Z,17.30
2019-03-23T16:08:58.592Z,16.30
2019-03-23T16:12:00.854Z,16.20
2019-03-23T16:15:03.157Z,16.50
2019-03-23T16:18:05.454Z,16.40
2019-03-23T16:21:07.734Z,16.10
2019-03-23T16:24:10.027Z,15.80
2019-03-23T16:27:12.321Z,15.80
2019-03-23T16:30:17.791Z,17.40
2019-03-23T16:33:20.093Z,19.90
2019-03-23T16:36:23.459Z,20.80
2019-03-23T16:39:25.713Z,20.60
2019-03-23T16:42:28.022Z,21.00
2019-03-23T16:45:30.335Z,20.60
2019-03-23T16:48:32.627Z,20.90
2019-03-23T16:51:34.910Z,21.40
2019-03-23T16:54:37.181Z,21.50
2019-03-23T16:57:39.464Z,21.90
2019-03-23T17:00:45.224Z,21.90
2019-03-23T17:03:47.681Z,22.00
2019-03-23T17:06:49.983Z,22.20
2019-03-23T17:09:52.255Z,22.00
2019-03-23T17:12:55.581Z,22.00
2019-03-23T17:15:58.216Z,22.80
2019-03-23T17:19:00.453Z,23.20
2019-03-23T17:22:02.780Z,23.70
2019-03-23T17:25:08.098Z,24.30
2019-03-23T17:28:10.437Z,24.60
2019-03-23T17:31:12.713Z,25.30
2019-03-23T17:34:15.073Z,25.80
2019-03-23T17:37:17.349Z,25.70
2019-03-23T17:40:19.712Z,26.30
2019-03-23T17:43:22.041Z,26.80
2019-03-23T17:46:24.306Z,27.60
2019-03-23T17:49:26.783Z,27.30
2019-03-23T17:52:29.544Z,27.50
2019-03-23T17:55:31.794Z,27.70
2019-03-23T17:58:34.145Z,27.90
2019-03-23T18:01:36.469Z,28.00
2019-03-23T18:04:38.770Z,28.10
2019-03-23T18:07:41.044Z,28.30
2019-03-23T18:10:44.536Z,28.40
2019-03-23T18:13:46.843Z,28.50
2019-03-23T18:16:49.135Z,28.70
2019-03-23T18:19:51.421Z,28.90
2019-03-23T18:22:53.707Z,29.00
2019-03-23T18:25:56.088Z,29.10
2019-03-23T18:28:58.369Z,29.40
2019-03-23T18:32:00.686Z,29.40
2019-03-23T18:35:03.272Z,29.70
2019-03-23T18:38:05.640Z,29.80
2019-03-23T18:41:07.936Z,30.00
2019-03-23T18:44:16.226Z,30.10
2019-03-23T18:47:14.257Z,30.30
2019-03-23T18:50:16.561Z,30.60
2019-03-23T18:53:18.866Z,30.70
2019-03-23T18:56:21.281Z,31.10
2019-03-23T18:59:23.633Z,31.30
2019-03-23T19:02:25.994Z,31.50
2019-03-23T19:05:28.363Z,31.70
2019-03-23T19:08:30.642Z,32.00
2019-03-23T19:11:32.944Z,32.20
2019-03-23T19:14:35.379Z,32.50
2019-03-23T19:17:37.973Z,32.70
2019-03-23T19:20:40.362Z,33.00
2019-03-23T19:23:42.708Z,33.20
2019-03-23T19:26:45.040Z,33.40
2019-03-23T19:29:47.368Z,33.70
2019-03-23T19:32:49.648Z,33.90
2019-03-23T19:35:52.293Z,34.30
2019-03-23T19:38:54.595Z,34.30
2019-03-23T19:41:56.900Z,34.60
2019-03-23T19:45:00.373Z,34.80
2019-03-23T19:48:02.629Z,34.80
2019-03-23T19:51:05.035Z,35.10
2019-03-23T19:54:07.437Z,35.90
2019-03-23T19:57:09.707Z,35.20
2019-03-23T20:00:12.872Z,35.40
2019-03-23T20:03:15.187Z,35.30
2019-03-23T20:06:17.534Z,35.40
2019-03-23T20:09:19.820Z,35.60
2019-03-23T20:12:22.111Z,35.70
2019-03-23T20:15:25.479Z,36.00
2019-03-23T20:18:27.780Z,35.80
2019-03-23T20:21:30.107Z,36.00
2019-03-23T20:24:32.395Z,35.90
2019-03-23T20:27:34.846Z,36.20
2019-03-23T20:30:37.181Z,36.40
2019-03-23T20:33:40.475Z,36.30
2019-03-23T20:36:42.739Z,36.50
2019-03-23T20:39:45.089Z,36.50
2019-03-23T20:42:47.359Z,36.50
2019-03-23T20:45:49.956Z,36.70
2019-03-23T20:48:52.334Z,36.70
2019-03-23T20:51:54.710Z,36.80
2019-03-23T20:54:57.008Z,36.80
2019-03-23T20:57:59.395Z,37.00
2019-03-23T21:01:01.784Z,37.00
2019-03-23T21:04:04.150Z,37.10
2019-03-23T21:07:07.541Z,37.10
2019-03-23T21:10:11.421Z,37.20
2019-03-23T21:13:13.711Z,37.30
2019-03-23T21:16:16.038Z,37.30
2019-03-23T21:19:18.328Z,37.30
2019-03-23T21:22:20.603Z,37.20
2019-03-23T21:25:22.849Z,37.30
2019-03-23T21:28:25.170Z,37.30
2019-03-23T21:31:28.414Z,37.40
2019-03-23T21:34:30.713Z,37.40
2019-03-23T21:37:33.048Z,37.50
2019-03-23T21:40:35.776Z,37.60
2019-03-23T21:43:38.088Z,37.60
2019-03-23T21:46:40.367Z,37.70
2019-03-23T21:49:42.664Z,37.80
2019-03-23T21:52:44.950Z,37.80
2019-03-23T21:55:47.222Z,37.80
2019-03-23T21:58:49.549Z,37.90
2019-03-23T22:01:51.833Z,38.00
2019-03-23T22:04:54.128Z,38.10
2019-03-23T22:07:56.434Z,38.10
2019-03-23T22:10:58.696Z,38.10
2019-03-23T22:14:01.059Z,38.20
2019-03-23T22:17:05.705Z,38.20
2019-03-23T22:20:08.868Z,38.30
2019-03-23T22:23:11.176Z,38.30
2019-03-23T22:26:13.469Z,38.40
2019-03-23T22:29:15.761Z,38.50
2019-03-23T22:32:18.116Z,38.60
2019-03-23T22:35:20.413Z,38.50
2019-03-23T22:38:22.693Z,38.60
2019-03-23T22:41:25.005Z,38.60
2019-03-23T22:44:27.252Z,38.70
2019-03-23T22:47:29.553Z,38.70
2019-03-23T22:50:31.815Z,38.80
2019-03-23T22:53:35.103Z,38.80
2019-03-23T22:56:38.462Z,38.90
2019-03-23T22:59:40.745Z,38.80
2019-03-23T23:02:43.022Z,38.90
2019-03-23T23:05:45.514Z,38.80
2019-03-23T23:08:47.912Z,38.90
2019-03-23T23:11:50.175Z,39.00
2019-03-23T23:14:52.668Z,39.00
2019-03-23T23:17:56.409Z,39.00
2019-03-23T23:20:59.778Z,39.20
2019-03-23T23:24:02.100Z,39.10
2019-03-23T23:27:05.560Z,39.20
2019-03-23T23:30:09.734Z,39.20
2019-03-23T23:33:12.082Z,39.30
2019-03-23T23:36:15.642Z,39.30
2019-03-23T23:39:18.021Z,39.40
2019-03-23T23:42:20.350Z,39.30
2019-03-23T23:45:23.697Z,39.30
2019-03-23T23:48:26.051Z,39.30
2019-03-23T23:51:28.318Z,39.50
2019-03-23T23:54:30.594Z,39.30
2019-03-23T23:57:32.978Z,39.50
